• Join FlightAware (Why Join?)
  • Login
  • US Flag 
10:02PM EDT


 

Airport Tracker/Info


-or-


 

Live Flight TrackerFlight Track Log ✈ LMO7602 ✈ 06-May-2013 ✈ KHOU - KTUS

Flight Track Log - Related Links

Times and Time Zones

All times are in EDT time to prevent confusion due to time zone crossing. See the LMO7602 flight status page for this flight to view local times or setup timezone preferences in your user account.

Time Position Orientation Groundspeed Altitude Reporting Facility
EDT Latitude Longitude Course Direction KTS MPH feet Rate Location/Type
02:56AM 29.6728 -95.2606 18° North 158 182 1,900  Level Houston Center
02:57AM 29.6933 -95.3036 299° West 158 182 3,800 1,560 Climbing Houston Center
02:58AM 29.6967 -95.3150 289° West 167 192 4,200 1,740 Climbing Houston Center
02:59AM 29.7117 -95.3756 286° West 192 221 6,400 2,160 Climbing Houston Center
03:00AM 29.7342 -95.4683 286° West 241 277 8,600 2,100 Climbing Houston Center
03:01AM 29.7492 -95.5525 282° West 263 303 10,600 2,100 Climbing Houston Center
03:02AM 29.7681 -95.6347 285° West 273 314 12,800 2,100 Climbing Houston Center
03:03AM 29.7861 -95.7197 284° West 274 315 14,800 1,980 Climbing Houston Center
03:04AM 29.8058 -95.8075 285° West 283 326 16,800 1,620 Climbing Houston Center
03:05AM 29.8261 -95.8989 284° West 294 338 18,100 1,380 Climbing Houston Center
03:06AM 29.8461 -95.9944 284° West 306 352 19,600 1,380 Climbing Houston Center
03:07AM 29.8647 -96.0856 283° West 316 364 21,000 1,440 Climbing Houston Center
03:08AM 29.8861 -96.1847 284° West 321 369 22,500 1,500 Climbing Houston Center
03:09AM 29.9064 -96.2856 283° West 323 372 24,000 1,500 Climbing Houston Center
03:10AM 29.9278 -96.3856 284° West 322 371 25,500 1,500 Climbing Houston Center
03:11AM 29.9486 -96.4833 284° West 317 365 27,000 1,380 Climbing Houston Center
03:12AM 29.9686 -96.5806 283° West 315 362 28,300 1,140 Climbing Houston Center
03:13AM 29.9894 -96.6808 284° West 321 369 29,300 1,020 Climbing Houston Center
03:14AM 30.0097 -96.7792 283° West 319 367 30,400 1,080 Climbing Houston Center
03:15AM 30.0303 -96.8783 283° West 319 367 31,500 1,020 Climbing Houston Center
03:16AM 30.0497 -96.9764 283° West 317 365 32,500 1,020 Climbing Houston Center
03:17AM 30.0706 -97.0731 284° West 313 360 33,600 780 Climbing Houston Center
03:18AM 30.0911 -97.1711 284° West 315 362 34,100 360 Climbing Houston Center
03:19AM 30.1142 -97.2814 284° West 334 384 34,400 300 Climbing Houston Center
03:20AM 30.1361 -97.3933 283° West 348 400 34,800 300 Climbing Houston Center
03:21AM 30.1603 -97.5081 284° West 359 413 35,100 240 Climbing Houston Center
03:22AM 30.1839 -97.6239 283° West 364 419 35,400 300 Climbing Houston Center
03:23AM 30.2083 -97.7419 284° West 372 428 35,800 420 Climbing Houston Center
03:24AM 30.2317 -97.8586 283° West 370 426 36,300 540 Climbing Houston Center
03:25AM 30.2544 -97.9797 282° West 363 418 36,900 600 Climbing Houston Center
03:26AM 30.2761 -98.0931 283° West 361 415 37,500 540 Climbing Houston Center
03:27AM 30.2975 -98.2056 282° West 362 417 38,000 240 Climbing Houston Center
03:28AM 30.3194 -98.3167 283° West 361 415 38,000  Level Houston Center
03:29AM 30.3433 -98.4353 283° West 371 427 38,000  Level Houston Center
03:30AM 30.3622 -98.5344 282° West 373 429 38,000  Level Houston Center
03:31AM 30.3856 -98.6553 283° West 380 437 38,000  Level Houston Center
03:32AM 30.4086 -98.7756 283° West 380 437 38,000  Level Houston Center
03:33AM 30.4333 -98.8961 283° West 381 438 38,000  Level Houston Center
03:34AM 30.4544 -99.0161 282° West 379 436 38,000  Level Houston Center
03:35AM 30.4786 -99.1408 283° West 377 434 38,000  Level Houston Center
03:36AM 30.5006 -99.2594 282° West 377 434 38,000  Level Houston Center
03:37AM 30.5239 -99.3781 283° West 378 435 38,000  Level Houston Center
03:38AM 30.5461 -99.4969 282° West 379 436 38,000  Level Houston Center
03:39AM 30.5692 -99.6164 283° West 381 438 38,000  Level Houston Center
03:40AM 30.5892 -99.7344 281° West 378 435 38,000  Level Houston Center
03:41AM 30.6114 -99.8533 282° West 378 435 38,000  Level Houston Center
03:42AM 30.6322 -99.9725 282° West 380 437 38,000  Level Houston Center
03:43AM 30.6539 -100.0922 282° West 380 437 38,000  Level Houston Center
03:44AM 30.6758 -100.2122 282° West 382 440 38,000  Level Houston Center
03:45AM 30.6958 -100.3303 281° West 383 441 38,000  Level Houston Center
03:46AM 30.7181 -100.4497 282° West 388 447 38,000  Level Houston Center
03:47AM 30.7389 -100.5700 281° West 385 443 38,000  Level Houston Center
03:48AM 30.7583 -100.6917 281° West 384 442 38,000  Level Houston Center
03:49AM 30.7808 -100.8108 282° West 382 440 38,000  Level Houston Center
03:50AM 30.8025 -100.9311 282° West 383 441 38,000  Level Houston Center
03:51AM 30.8225 -101.0536 281° West 387 445 38,000  Level Houston Center
03:52AM 30.8417 -101.1742 281° West 385 443 38,000  Level Houston Center
03:53AM 30.8650 -101.2917 283° West 379 436 38,000  Level Houston Center
03:54AM 30.8814 -101.3936 281° West 383 441 38,000  Level Albuquerque Center
03:55AM 30.9008 -101.5175 280° West 386 444 38,000  Level Albuquerque Center
03:56AM 30.9208 -101.6394 281° West 386 444 38,000  Level Albuquerque Center
03:57AM 30.9411 -101.7614 281° West 384 442 38,000  Level Albuquerque Center
03:58AM 30.9617 -101.8836 281° West 384 442 38,000  Level Albuquerque Center
03:59AM 30.9806 -102.0067 280° West 384 442 38,000  Level Albuquerque Center
04:00AM 31.0028 -102.1486 280° West 397 457 38,000  Level Albuquerque Center
04:01AM 31.0236 -102.2703 281° West 389 448 38,000  Level Albuquerque Center
04:02AM 31.0433 -102.3922 281° West 384 442 38,000  Level Albuquerque Center
04:03AM 31.0631 -102.5147 281° West 384 442 38,000  Level Albuquerque Center
04:04AM 31.0800 -102.6269 280° West 382 440 38,000  Level Albuquerque Center
04:05AM 31.1000 -102.7511 281° West 386 444 38,000  Level Albuquerque Center
04:06AM 31.1189 -102.8733 280° West 384 442 38,000  Level Albuquerque Center
04:07AM 31.1383 -102.9961 281° West 384 442 38,000  Level Albuquerque Center
04:08AM 31.1569 -103.1189 280° West 383 441 38,000  Level Albuquerque Center
04:09AM 31.1761 -103.2422 280° West 386 444 38,000  Level Albuquerque Center
04:10AM 31.1961 -103.3658 281° West 386 444 38,000  Level Albuquerque Center
04:11AM 31.2158 -103.4892 281° West 387 445 38,000  Level Albuquerque Center
04:12AM 31.2364 -103.6128 281° West 388 447 38,000  Level Albuquerque Center
04:13AM 31.2536 -103.7372 279° West 388 447 38,000  Level Albuquerque Center
04:14AM 31.2733 -103.8694 280° West 389 448 38,000  Level Albuquerque Center
04:15AM 31.2931 -103.9942 281° West 391 450 38,000  Level Albuquerque Center
04:16AM 31.3111 -104.1178 280° West 389 448 38,000  Level Albuquerque Center
04:17AM 31.3289 -104.2422 280° West 389 448 38,000  Level Albuquerque Center
04:18AM 31.3469 -104.3653 280° West 388 447 38,000  Level Albuquerque Center
04:19AM 31.3647 -104.4886 280° West 387 445 38,000  Level Albuquerque Center
04:20AM 31.3822 -104.6117 279° West 386 444 38,000  Level Albuquerque Center
04:21AM 31.4008 -104.7353 280° West 387 445 38,000  Level Albuquerque Center
04:22AM 31.4175 -104.8592 279° West 388 447 38,000  Level Albuquerque Center
04:23AM 31.4358 -104.9839 280° West 391 450 38,000  Level Albuquerque Center
04:24AM 31.4531 -105.1083 279° West 391 450 38,000  Level Albuquerque Center
04:25AM 31.4703 -105.2333 279° West 391 450 38,000  Level Albuquerque Center
04:26AM 31.4869 -105.3597 279° West 395 455 38,000  Level Albuquerque Center
04:27AM 31.5031 -105.4856 279° West 393 452 38,000  Level Albuquerque Center
04:28AM 31.5200 -105.6103 279° West 391 450 38,000  Level Albuquerque Center
04:29AM 31.5364 -105.7358 279° West 392 451 38,000  Level Albuquerque Center
04:30AM 31.5528 -105.8611 279° West 391 450 38,000  Level Albuquerque Center
04:31AM 31.5700 -105.9850 279° West 387 445 38,000  Level Albuquerque Center
04:32AM 31.5892 -106.1333 279° West 387 445 38,000  Level Albuquerque Center
04:33AM 31.6053 -106.2567 279° West 385 443 38,000  Level Albuquerque Center
04:34AM 31.6211 -106.3828 278° West 389 448 38,000  Level Albuquerque Center
04:35AM 31.6381 -106.5083 279° West 392 451 38,000  Level Albuquerque Center
04:36AM 31.6525 -106.6278 278° West 391 450 38,000  Level Albuquerque Center
04:37AM 31.6686 -106.7542 279° West 393 452 38,000  Level Albuquerque Center
04:38AM 31.6853 -106.8800 279° West 390 449 38,000  Level Albuquerque Center
04:39AM 31.7006 -107.0058 278° West 388 447 38,000  Level Albuquerque Center
04:40AM 31.7153 -107.1297 278° West 383 441 38,000  Level Albuquerque Center
04:41AM 31.7303 -107.2539 278° West 382 440 38,000  Level Albuquerque Center
04:42AM 31.7456 -107.3767 278° West 381 438 38,000  Level Albuquerque Center
04:43AM 31.7592 -107.5044 277° West 378 435 38,000  Level Albuquerque Center
04:44AM 31.7733 -107.6253 278° West 377 434 38,000  Level Albuquerque Center
04:45AM 31.7878 -107.7481 278° West 379 436 38,000  Level Albuquerque Center
04:46AM 31.8019 -107.8717 278° West 383 441 38,000  Level Albuquerque Center
04:47AM 31.8153 -107.9969 277° West 386 444 38,000  Level Albuquerque Center
04:48AM 31.8300 -108.1231 278° West 390 449 38,000  Level Albuquerque Center
04:49AM 31.8450 -108.2469 278° West 390 449 38,000  Level Albuquerque Center
04:50AM 31.8583 -108.3722 277° West 388 447 38,000  Level Albuquerque Center
04:51AM 31.8731 -108.5017 278° West 397 457 38,000 -540 Level Albuquerque Center
04:52AM 31.8864 -108.6297 277° West 398 458 37,000 -1,560 Descending Albuquerque Center
04:53AM 31.9011 -108.7631 277° West 408 470 34,900 -2,100 Descending Albuquerque Center
04:54AM 31.9131 -108.8836 277° West 387 445 32,800 -2,100 Descending Albuquerque Center
04:55AM 31.9258 -109.0003 277° West 368 423 30,800 -2,100 Descending Albuquerque Center
04:56AM 31.9372 -109.1122 277° West 355 409 28,700 -2,100 Descending Albuquerque Center
04:57AM 31.9469 -109.2211 276° West 343 395 26,700 -2,040 Descending Albuquerque Center
04:58AM 31.9578 -109.3264 277° West 332 382 24,600 -2,160 Descending Albuquerque Center
04:59AM 31.9675 -109.4344 276° West 333 383 22,400 -2,100 Descending Albuquerque Center
05:00AM 31.9833 -109.5575 279° West 372 428 20,400 -2,100 Descending Albuquerque Center
05:01AM 31.9961 -109.6811 277° West 381 438 18,300 -2,100 Descending Albuquerque Center
05:02AM 32.0056 -109.7836 276° West 335 386 16,200 -2,040 Descending Albuquerque Center
05:03AM 32.0133 -109.8828 275° West 314 361 14,200 -1,140 Descending Albuquerque Center
05:04AM 32.0242 -109.9839 277° West 312 359 14,000 -120 Descending Albuquerque Center
05:05AM 32.0361 -110.1156 276° West 334 384 14,000  Level Albuquerque Center
05:05AM 32.0414 -110.1511 280° West 341 392 14,000  Level Albuquerque Center
05:06AM 32.0475 -110.2022 278° West 345 397 14,000 -180 Level Albuquerque Center
05:06AM 32.0494 -110.2281 275° West 344 396 13,900  Descending Albuquerque Center
05:07AM 32.0567 -110.3006 277° West 301 346 14,000  Climbing Albuquerque Center
05:07AM 32.0625 -110.3261 285° West 326 375 13,900 -240 Descending Albuquerque Center
05:08AM 32.0783 -110.3878 287° West 287 330 13,800 -540 Descending Albuquerque Center
05:08AM 32.0844 -110.4106 288° West 283 326 13,400 -1,680 Descending Albuquerque Center
05:09AM 32.1078 -110.4803 292° West 298 343 12,100 -1,620 Descending Albuquerque Center
05:09AM 32.1172 -110.5017 298° West 296 341 11,800 -1,140 Descending Albuquerque Center
05:10AM 32.1383 -110.5703 290° West 295 339 11,000 -960 Descending Albuquerque Center
05:11AM 32.1653 -110.6511 292° West 274 315 10,200 -1,020 Descending Albuquerque Center
05:12AM 32.1933 -110.7392 291° West 264 304 9,000 -900 Descending Albuquerque Center
05:13AM 32.2117 -110.8097 287° West 234 269 8,500 -1,320 Descending Albuquerque Center
05:14AM 32.2306 -110.8853 286° West 238 274 6,400 -2,040 Descending Albuquerque Center
05:15AM 32.2150 -110.9475 254° West 209 241 4,400 -1,200 Descending Albuquerque Center
05:16AM 32.1825 -110.9789 219° Southwest 130 150 4,000 -600 Descending Albuquerque Center
05:17AM 32.1508 -110.9800 182° South 126 145 3,200 -840 Descending Albuquerque Center